createdAt,value
2019-04-28T00:04:45.869Z,95.01
2019-04-28T00:09:51.025Z,94.42
2019-04-28T00:14:54.592Z,95.35
2019-04-28T00:20:01.340Z,95.84
2019-04-28T00:25:21.481Z,95.23
2019-04-28T00:30:25.566Z,95.05
2019-04-28T00:35:28.927Z,94.58
2019-04-28T00:40:32.330Z,95.35
2019-04-28T00:45:35.739Z,95.44
2019-04-28T00:50:39.230Z,95.82
2019-04-28T00:55:42.650Z,95.48
2019-04-28T01:01:04.141Z,94.86
2019-04-28T01:06:07.620Z,95.45
2019-04-28T01:11:11.769Z,95.78
2019-04-28T01:16:32.840Z,96.17
2019-04-28T01:21:37.963Z,95.44
2019-04-28T01:26:41.635Z,95.09
2019-04-28T01:31:55.689Z,95.21
2019-04-28T01:36:59.815Z,95.33
2019-04-28T01:42:03.206Z,95.87
2019-04-28T01:47:06.639Z,94.68
2019-04-28T01:52:10.479Z,94.51
2019-04-28T01:57:13.929Z,94.48
2019-04-28T02:02:17.337Z,94.50
2019-04-28T02:07:20.742Z,95.05
2019-04-28T02:12:24.168Z,95.65
2019-04-28T02:17:27.592Z,95.84
2019-04-28T02:22:32.818Z,95.51
2019-04-28T02:27:36.222Z,95.22
2019-04-28T02:32:40.730Z,95.08
2019-04-28T02:37:44.804Z,94.82
2019-04-28T02:42:48.227Z,94.30
2019-04-28T02:47:53.396Z,94.82
2019-04-28T02:53:01.891Z,94.11
2019-04-28T02:58:05.662Z,93.94
2019-04-28T03:03:11.017Z,93.84
2019-04-28T03:08:14.842Z,94.59
2019-04-28T03:13:20.932Z,94.87
2019-04-28T03:18:23.559Z,94.99
2019-04-28T03:23:27.060Z,95.02
2019-04-28T03:28:33.734Z,95.25
2019-04-28T03:33:43.554Z,95.18
2019-04-28T03:38:42.553Z,94.67
2019-04-28T03:43:46.095Z,95.23
2019-04-28T03:48:50.890Z,94.79
2019-04-28T03:53:54.762Z,95.91
2019-04-28T03:59:00.440Z,95.61
2019-04-28T04:04:03.679Z,96.07
2019-04-28T04:09:07.139Z,96.19
2019-04-28T04:14:12.194Z,96.10
2019-04-28T04:19:16.895Z,94.45
2019-04-28T04:24:20.624Z,95.13
2019-04-28T04:29:24.202Z,95.80
2019-04-28T04:34:30.113Z,95.57
2019-04-28T04:39:32.761Z,95.24
2019-04-28T04:44:38.800Z,96.30
2019-04-28T04:49:41.332Z,95.79
2019-04-28T04:54:44.750Z,95.82
2019-04-28T04:59:50.019Z,95.34
2019-04-28T05:05:04.257Z,96.30
2019-04-28T05:10:07.751Z,96.36
2019-04-28T05:15:11.940Z,97.14
2019-04-28T05:20:15.558Z,97.77
2019-04-28T05:25:24.574Z,97.72
2019-04-28T05:30:29.681Z,96.48
2019-04-28T05:35:35.570Z,96.54
2019-04-28T05:40:39.850Z,95.84
2019-04-28T05:45:44.232Z,95.83
2019-04-28T05:50:50.029Z,94.94
2019-04-28T05:55:55.199Z,93.42
2019-04-28T06:01:20.382Z,93.60
2019-04-28T06:06:25.547Z,94.39
2019-04-28T06:11:30.848Z,92.73
2019-04-28T06:16:34.232Z,91.88
2019-04-28T06:21:38.010Z,90.43
2019-04-28T06:26:41.441Z,90.58
2019-04-28T06:31:44.868Z,89.04
2019-04-28T06:36:48.311Z,88.90
2019-04-28T06:41:51.732Z,88.45
2019-04-28T06:46:55.188Z,86.88
2019-04-28T06:51:58.595Z,87.90
2019-04-28T06:57:02.057Z,87.89
2019-04-28T07:02:05.526Z,87.32
2019-04-28T07:07:09.037Z,87.45
2019-04-28T07:12:12.450Z,86.39
2019-04-28T07:17:15.881Z,85.12
2019-04-28T07:22:23.823Z,83.35
2019-04-28T07:27:27.259Z,83.29
2019-04-28T07:32:30.696Z,82.16
2019-04-28T07:37:34.132Z,79.60
2019-04-28T07:42:37.602Z,77.50
2019-04-28T07:47:41.127Z,77.72
2019-04-28T07:52:48.770Z,77.52
2019-04-28T07:57:52.338Z,75.07
2019-04-28T08:02:55.798Z,74.10
2019-04-28T08:07:59.211Z,74.46
2019-04-28T08:13:02.658Z,73.30
2019-04-28T08:18:06.181Z,73.46
2019-04-28T08:23:09.607Z,72.98
2019-04-28T08:28:13.402Z,71.50
2019-04-28T08:33:33.152Z,70.05
2019-04-28T08:38:35.617Z,71.65
2019-04-28T08:43:39.069Z,70.94
2019-04-28T08:48:42.502Z,69.88
2019-04-28T08:53:45.964Z,67.19
2019-04-28T08:58:49.442Z,69.89
2019-04-28T09:03:52.870Z,66.42
2019-04-28T09:08:56.288Z,67.48
2019-04-28T09:13:59.781Z,68.29
2019-04-28T09:19:03.221Z,67.49
2019-04-28T09:24:06.787Z,67.68
2019-04-28T09:29:10.215Z,67.48
2019-04-28T09:34:13.914Z,67.18
2019-04-28T09:39:18.980Z,66.23
2019-04-28T09:44:22.503Z,62.77
2019-04-28T09:49:28.582Z,63.67
2019-04-28T09:54:32.223Z,61.11
2019-04-28T09:59:37.191Z,61.09
2019-04-28T10:04:41.901Z,59.46
2019-04-28T10:09:48.255Z,58.60
2019-04-28T10:14:51.763Z,56.63
2019-04-28T10:19:55.189Z,55.50
2019-04-28T10:24:58.649Z,52.44
2019-04-28T10:30:02.188Z,54.14
2019-04-28T10:35:10.385Z,51.38
2019-04-28T10:40:24.369Z,53.69
2019-04-28T10:45:29.521Z,49.27
2019-04-28T10:50:32.973Z,49.52
2019-04-28T10:55:39.461Z,51.34
2019-04-28T11:00:45.929Z,53.93
2019-04-28T11:05:49.567Z,54.22
2019-04-28T11:10:53.972Z,53.10
2019-04-28T11:15:57.541Z,55.10
2019-04-28T11:21:00.997Z,53.37
2019-04-28T11:26:04.508Z,50.60
2019-04-28T11:31:08.064Z,51.84
2019-04-28T11:36:11.579Z,52.85
2019-04-28T11:41:15.059Z,51.88
2019-04-28T11:46:20.104Z,51.95
2019-04-28T11:51:23.595Z,50.47
2019-04-28T11:56:27.093Z,49.09
2019-04-28T12:01:30.798Z,49.45
2019-04-28T12:06:34.204Z,47.17
2019-04-28T12:11:39.298Z,45.96
2019-04-28T12:16:50.142Z,48.80
2019-04-28T12:21:55.581Z,45.43
2019-04-28T12:26:58.986Z,46.63
2019-04-28T12:32:02.460Z,47.76
2019-04-28T12:37:05.932Z,47.89
2019-04-28T12:42:09.499Z,47.46
2019-04-28T12:47:12.952Z,46.60
2019-04-28T12:52:16.973Z,48.54
2019-04-28T12:57:22.562Z,48.12
2019-04-28T13:02:42.982Z,50.26
2019-04-28T13:07:46.546Z,48.61
2019-04-28T13:12:50.065Z,49.39
2019-04-28T13:17:53.500Z,53.17
2019-04-28T13:22:56.917Z,54.38
2019-04-28T13:28:01.236Z,56.90
2019-04-28T13:33:04.798Z,55.67
2019-04-28T13:38:08.183Z,56.81
2019-04-28T13:43:11.613Z,57.89
2019-04-28T13:48:15.042Z,57.88
2019-04-28T13:53:26.244Z,58.01
2019-04-28T13:58:37.878Z,57.92
2019-04-28T14:03:48.924Z,59.08
2019-04-28T14:08:52.455Z,59.89
2019-04-28T14:13:55.924Z,59.22
2019-04-28T14:18:59.380Z,57.74
2019-04-28T14:24:03.870Z,55.85
2019-04-28T14:29:07.455Z,52.83
2019-04-28T14:34:12.006Z,50.90
2019-04-28T14:39:16.981Z,48.93
2019-04-28T14:44:20.469Z,49.14
2019-04-28T14:49:23.867Z,52.57
2019-04-28T14:54:31.731Z,52.78
2019-04-28T14:59:35.165Z,52.93
2019-04-28T15:04:56.748Z,54.54
2019-04-28T15:10:17.178Z,54.26
2019-04-28T15:15:21.661Z,55.09
2019-04-28T15:20:25.324Z,54.50
2019-04-28T15:25:28.757Z,54.24
2019-04-28T15:30:32.943Z,54.99
2019-04-28T15:35:36.345Z,56.45
2019-04-28T15:40:39.882Z,57.65
2019-04-28T15:45:46.806Z,57.81
2019-04-28T15:50:50.244Z,58.00
2019-04-28T15:55:55.329Z,57.68
2019-04-28T16:00:58.980Z,57.03
2019-04-28T16:06:02.518Z,58.42
2019-04-28T16:11:06.004Z,59.25
2019-04-28T16:16:09.403Z,55.99
2019-04-28T16:21:12.840Z,54.35
2019-04-28T16:26:16.297Z,53.20
2019-04-28T16:31:19.720Z,53.38
2019-04-28T16:36:23.227Z,56.04
2019-04-28T16:41:35.051Z,58.36
2019-04-28T16:46:38.480Z,57.96
2019-04-28T16:51:41.902Z,57.86
2019-04-28T16:56:59.428Z,57.66
2019-04-28T17:02:10.338Z,57.33
2019-04-28T17:07:13.953Z,58.19
2019-04-28T17:12:17.443Z,59.11
2019-04-28T17:17:20.896Z,60.67
2019-04-28T17:22:24.388Z,61.48
2019-04-28T17:27:27.832Z,62.79
2019-04-28T17:32:31.451Z,64.23
2019-04-28T17:37:35.030Z,65.96
2019-04-28T17:42:38.448Z,68.18
2019-04-28T17:47:41.951Z,69.90
2019-04-28T17:52:45.923Z,70.01
2019-04-28T17:57:49.608Z,70.14
2019-04-28T18:02:54.690Z,71.71
2019-04-28T18:07:59.743Z,71.68
2019-04-28T18:13:03.342Z,72.56
2019-04-28T18:18:17.482Z,74.05
2019-04-28T18:23:21.066Z,73.55
2019-04-28T18:28:24.649Z,73.99
2019-04-28T18:33:39.038Z,75.93
2019-04-28T18:38:44.158Z,77.17
2019-04-28T18:44:04.091Z,80.72
2019-04-28T18:49:07.599Z,79.25
2019-04-28T18:54:11.439Z,81.52
2019-04-28T18:59:14.986Z,83.81
2019-04-28T19:04:19.121Z,82.24
2019-04-28T19:09:30.038Z,82.50
2019-04-28T19:14:47.388Z,85.71
2019-04-28T19:19:50.870Z,87.81
2019-04-28T19:24:54.371Z,86.41
2019-04-28T19:29:59.594Z,85.69
2019-04-28T19:35:03.005Z,85.75
2019-04-28T19:40:07.262Z,85.60
2019-04-28T19:45:12.703Z,84.50
2019-04-28T19:50:17.093Z,86.54
2019-04-28T19:55:22.183Z,87.54
2019-04-28T20:00:27.432Z,88.92
2019-04-28T20:05:30.872Z,89.96
2019-04-28T20:10:34.325Z,89.09
2019-04-28T20:15:37.841Z,89.51
2019-04-28T20:20:41.294Z,90.02
2019-04-28T20:25:46.547Z,91.84
2019-04-28T20:30:49.934Z,89.42
2019-04-28T20:35:54.996Z,89.21
2019-04-28T20:41:00.126Z,88.96
2019-04-28T20:46:03.554Z,89.22
2019-04-28T20:51:06.960Z,89.17
2019-04-28T20:56:10.487Z,90.01
2019-04-28T21:01:13.920Z,90.03
2019-04-28T21:06:17.372Z,89.51
2019-04-28T21:11:20.795Z,89.56
2019-04-28T21:16:24.247Z,90.68
2019-04-28T21:21:27.743Z,90.21
2019-04-28T21:26:31.240Z,90.30
2019-04-28T21:31:34.700Z,88.44
2019-04-28T21:36:38.155Z,90.64
2019-04-28T21:41:42.142Z,89.09
2019-04-28T21:46:47.299Z,88.52
2019-04-28T21:51:50.744Z,89.44
2019-04-28T21:56:54.252Z,88.60
2019-04-28T22:01:57.763Z,88.21
2019-04-28T22:07:01.205Z,89.58
2019-04-28T22:12:04.845Z,91.38
2019-04-28T22:17:08.413Z,92.32
2019-04-28T22:22:11.956Z,91.58
2019-04-28T22:27:17.670Z,89.57
2019-04-28T22:32:21.132Z,89.87
2019-04-28T22:37:24.679Z,89.41
2019-04-28T22:42:28.143Z,90.50
2019-04-28T22:47:31.676Z,89.38
2019-04-28T22:52:35.203Z,88.60
2019-04-28T22:57:55.227Z,88.17
2019-04-28T23:02:58.703Z,89.79
2019-04-28T23:08:02.113Z,89.89
2019-04-28T23:13:05.555Z,90.81
2019-04-28T23:18:09.052Z,90.74
2019-04-28T23:23:12.753Z,91.41
2019-04-28T23:28:16.172Z,90.92
2019-04-28T23:33:19.618Z,90.20
2019-04-28T23:38:23.039Z,90.83
2019-04-28T23:43:26.482Z,91.09
2019-04-28T23:48:29.905Z,89.75
2019-04-28T23:53:50.933Z,90.85
2019-04-28T23:58:54.380Z,91.23
